Forside
METAR-TAF:

METAR-TAF

Lufthavne :

Flughafen Lübeck

Lübeck, Tyskland

Breddekreds: 53-49N, længdekreds: 010-42E, højde: 14 m

Aktuelle vejr

Denne rapport blev lavet for 21 minutter siden, kl. 14:50 UTC
Vind 7 kt fra syd, varierende mellem sydøst og sydsydvest
Temperatur 22°C
Fugtighed 41%
Tryk 1022 hPa
Sigt 10 km eller mere
ingen skyer under 1500m og ingen cumulonimbus

METAR: EDHL 081450Z 17007KT 130V200 CAVOK 22/08 Q1022

Tid: 17:11 (15:11 UTC)

Vejrudsigter

Denne rapport blev lavet for 1 time og 11 minutter siden, kl. 14:00 UTC
Foreløbig gælder fra 08 på 15 UTC til 08 på 21 UTC
Vind 6 kt fra syd
Sigt 10 km eller mere
ingen skyer under 1500m og ingen cumulonimbus
ændring
fra 08 på 16 UTC til 08 på 19 UTC
Vind 4 kt fra vestnordvest

TAF: EDHL 081400Z 0815/0821 18006KT CAVOK BECMG 0816/0819 29004KT

Vejrobservationer og prognoser fra mere end 4000 lufthavne (METAR og TAF).

De gule og røde prikker repræsenterer de meteorologiske stationer.

Flyt musen over at se navnet på stationen.

Så klik over at se vejr observationer og prognoser.

At skifte det kort: Klik på de grønne knapper med et sort kors for at zoome ind; på den grønne knap med en bindestreg for at zoome ud; eller på de grønne pile for tilstødende kort.


METAR-TAF: